createdAt,value
2019-05-26T00:00:09.878Z,12.20
2019-05-26T00:02:38.484Z,10.40
2019-05-26T00:05:08.858Z,10.45
2019-05-26T00:07:37.903Z,11.43
2019-05-26T00:10:09.899Z,12.20
2019-05-26T00:12:38.661Z,12.33
2019-05-26T00:15:08.253Z,12.90
2019-05-26T00:17:36.666Z,13.10
2019-05-26T00:20:08.444Z,12.67
2019-05-26T00:22:37.071Z,17.03
2019-05-26T00:25:07.492Z,14.23
2019-05-26T00:27:35.950Z,12.37
2019-05-26T00:30:07.462Z,14.80
2019-05-26T00:32:35.893Z,15.30
2019-05-26T00:35:08.933Z,13.87
2019-05-26T00:37:49.027Z,19.43
2019-05-26T00:40:08.865Z,12.83
2019-05-26T00:42:38.181Z,17.17
2019-05-26T00:45:08.175Z,15.30
2019-05-26T00:47:36.650Z,14.60
2019-05-26T00:50:07.936Z,18.20
2019-05-26T00:52:36.546Z,16.30
2019-05-26T00:55:06.887Z,16.00
2019-05-26T00:57:35.332Z,18.20
2019-05-26T01:00:09.019Z,13.93
2019-05-26T01:02:38.232Z,15.20
2019-05-26T01:05:08.239Z,15.93
2019-05-26T01:07:37.605Z,19.97
2019-05-26T01:10:11.164Z,21.17
2019-05-26T01:12:39.632Z,15.87
2019-05-26T01:15:09.502Z,14.90
2019-05-26T01:17:38.388Z,16.77
2019-05-26T01:20:07.161Z,15.47
2019-05-26T01:22:35.594Z,15.60
2019-05-26T01:25:05.931Z,23.53
2019-05-26T01:27:34.333Z,16.60
2019-05-26T01:30:02.795Z,17.07
2019-05-26T01:32:31.224Z,17.57
2019-05-26T01:34:59.648Z,27.00
2019-05-26T01:37:28.224Z,15.40
2019-05-26T01:39:56.652Z,19.27
2019-05-26T01:42:25.073Z,18.43
2019-05-26T01:44:53.524Z,17.67
2019-05-26T01:47:21.947Z,21.53
2019-05-26T01:49:50.414Z,18.10
2019-05-26T01:52:18.824Z,22.13
2019-05-26T01:54:47.363Z,17.37
2019-05-26T01:57:15.772Z,24.52
2019-05-26T01:59:44.210Z,22.87
2019-05-26T02:02:12.635Z,21.97
2019-05-26T02:04:41.074Z,21.03
2019-05-26T02:07:09.486Z,19.53
2019-05-26T02:09:37.910Z,21.40
2019-05-26T02:12:06.405Z,23.57
2019-05-26T02:14:34.859Z,23.33
2019-05-26T02:17:03.259Z,16.67
2019-05-26T02:19:31.686Z,19.27
2019-05-26T02:22:00.099Z,18.30
2019-05-26T02:24:28.537Z,27.77
2019-05-26T02:26:56.953Z,22.63
2019-05-26T02:29:25.394Z,23.00
2019-05-26T02:31:53.830Z,17.30
2019-05-26T02:34:22.223Z,16.93
2019-05-26T02:36:50.674Z,24.43
2019-05-26T02:39:19.167Z,24.60
2019-05-26T02:41:47.584Z,17.60
2019-05-26T02:44:16.072Z,24.07
2019-05-26T02:46:44.594Z,21.70
2019-05-26T02:49:13.039Z,18.57
2019-05-26T02:51:41.432Z,18.10
2019-05-26T02:54:09.849Z,23.57
2019-05-26T02:56:39.893Z,23.32
2019-05-26T02:59:09.373Z,17.40
2019-05-26T03:02:03.570Z,20.47
2019-05-26T03:04:29.586Z,23.93
2019-05-26T03:07:00.604Z,22.20
2019-05-26T03:09:30.643Z,28.77
2019-05-26T03:12:01.402Z,29.63
2019-05-26T03:14:32.841Z,27.10
2019-05-26T03:17:02.613Z,34.43
2019-05-26T03:19:34.950Z,30.47
2019-05-26T03:22:04.619Z,22.50
2019-05-26T03:24:33.875Z,26.17
2019-05-26T03:27:02.270Z,25.80
2019-05-26T03:29:30.717Z,24.40
2019-05-26T03:31:59.257Z,23.60
2019-05-26T03:34:27.697Z,28.17
2019-05-26T03:36:56.100Z,24.27
2019-05-26T03:39:42.590Z,23.77
2019-05-26T03:41:54.659Z,23.67
2019-05-26T03:44:23.094Z,25.73
2019-05-26T03:46:51.522Z,26.33
2019-05-26T03:49:19.939Z,26.83
2019-05-26T03:51:48.371Z,20.50
2019-05-26T03:54:16.777Z,24.55
2019-05-26T03:56:45.229Z,23.70
2019-05-26T03:59:13.686Z,24.77
2019-05-26T04:01:42.107Z,26.33
2019-05-26T04:04:10.502Z,29.20
2019-05-26T04:06:39.996Z,28.20
2019-05-26T04:09:09.093Z,25.00
2019-05-26T04:11:37.512Z,26.90
2019-05-26T04:14:05.921Z,22.03
2019-05-26T04:16:34.357Z,21.43
2019-05-26T04:19:02.769Z,34.97
2019-05-26T04:21:31.189Z,22.30
2019-05-26T04:23:59.648Z,24.03
2019-05-26T04:26:28.081Z,21.13
2019-05-26T04:28:56.502Z,22.80
2019-05-26T04:31:25.160Z,31.40
2019-05-26T04:33:53.575Z,25.80
2019-05-26T04:36:22.116Z,33.00
2019-05-26T04:38:50.506Z,24.83
2019-05-26T04:41:18.909Z,23.87
2019-05-26T04:43:47.352Z,21.57
2019-05-26T04:46:15.793Z,24.67
2019-05-26T04:48:44.210Z,17.20
2019-05-26T04:51:12.634Z,19.20
2019-05-26T04:53:41.069Z,17.30
2019-05-26T04:56:10.436Z,24.37
2019-05-26T04:58:38.831Z,18.70
2019-05-26T05:01:07.237Z,22.87
2019-05-26T05:03:35.707Z,21.30
2019-05-26T05:06:04.201Z,19.30
2019-05-26T05:08:32.635Z,20.37
2019-05-26T05:11:01.110Z,20.00
2019-05-26T05:13:29.516Z,20.43
2019-05-26T05:15:57.959Z,19.47
2019-05-26T05:18:26.414Z,22.80
2019-05-26T05:20:54.860Z,21.07
2019-05-26T05:23:23.291Z,20.23
2019-05-26T05:25:51.724Z,25.20
2019-05-26T05:28:20.145Z,24.17
2019-05-26T05:30:48.606Z,21.10
2019-05-26T05:33:17.002Z,25.43
2019-05-26T05:35:45.453Z,23.20
2019-05-26T05:38:13.877Z,22.00
2019-05-26T05:40:56.379Z,21.50
2019-05-26T05:43:12.444Z,22.77
2019-05-26T05:45:41.010Z,27.33
2019-05-26T05:48:09.438Z,22.80
2019-05-26T05:50:39.290Z,24.63
2019-05-26T05:53:08.049Z,23.30
2019-05-26T05:55:36.491Z,30.73
2019-05-26T05:58:04.981Z,27.00
2019-05-26T06:00:33.401Z,23.00
2019-05-26T06:03:01.858Z,18.90
2019-05-26T06:05:30.282Z,24.93
2019-05-26T06:07:58.730Z,22.23
2019-05-26T06:10:27.185Z,28.50
2019-05-26T06:12:55.585Z,26.93
2019-05-26T06:15:24.016Z,26.57
2019-05-26T06:17:52.559Z,34.07
2019-05-26T06:20:20.981Z,29.10
2019-05-26T06:22:49.418Z,26.43
2019-05-26T06:25:18.110Z,27.13
2019-05-26T06:27:46.771Z,28.05
2019-05-26T06:30:15.431Z,32.13
2019-05-26T06:32:43.845Z,28.70
2019-05-26T06:35:12.608Z,27.70
2019-05-26T06:37:41.534Z,31.60
2019-05-26T06:40:10.197Z,32.47
2019-05-26T06:42:38.732Z,31.17
2019-05-26T06:45:07.811Z,32.57
2019-05-26T06:47:36.269Z,31.60
2019-05-26T06:50:05.765Z,30.13
2019-05-26T06:52:34.245Z,28.60
2019-05-26T06:55:02.756Z,28.87
2019-05-26T06:57:31.145Z,25.50
2019-05-26T06:59:59.559Z,22.10
2019-05-26T07:02:27.956Z,28.17
2019-05-26T07:04:56.375Z,26.03
2019-05-26T07:07:24.808Z,24.10
2019-05-26T07:09:53.504Z,25.17
2019-05-26T07:12:22.038Z,21.83
2019-05-26T07:14:50.489Z,23.50
2019-05-26T07:17:20.639Z,22.82
2019-05-26T07:19:49.314Z,20.57
2019-05-26T07:22:17.769Z,21.07
2019-05-26T07:24:46.177Z,19.70
2019-05-26T07:27:14.616Z,17.93
2019-05-26T07:29:43.036Z,16.60
2019-05-26T07:32:12.119Z,15.80
2019-05-26T07:34:40.570Z,16.10
2019-05-26T07:37:09.071Z,18.07
2019-05-26T07:39:37.537Z,16.50
2019-05-26T07:42:10.365Z,16.73
2019-05-26T07:44:36.096Z,18.83
2019-05-26T07:47:04.591Z,18.50
2019-05-26T07:49:33.024Z,15.30
2019-05-26T07:52:01.443Z,15.07
2019-05-26T07:54:29.858Z,15.93
2019-05-26T07:56:58.265Z,15.97
2019-05-26T07:59:26.724Z,10.93
2019-05-26T08:01:55.134Z,12.07
2019-05-26T08:04:23.584Z,12.40
2019-05-26T08:06:52.015Z,14.10
2019-05-26T08:09:20.668Z,12.07
2019-05-26T08:11:49.058Z,14.63
2019-05-26T08:14:17.493Z,10.87
2019-05-26T08:16:45.916Z,13.80
2019-05-26T08:19:14.356Z,11.57
2019-05-26T08:21:42.788Z,12.70
2019-05-26T08:24:11.185Z,11.30
2019-05-26T08:26:39.582Z,13.00
2019-05-26T08:29:08.003Z,11.10
2019-05-26T08:31:36.498Z,10.10
2019-05-26T08:34:04.970Z,9.33
2019-05-26T08:36:33.381Z,12.33
2019-05-26T08:39:01.816Z,10.30
2019-05-26T08:41:30.318Z,10.17
2019-05-26T08:43:58.730Z,9.83
2019-05-26T08:46:27.143Z,7.65
2019-05-26T08:48:55.565Z,8.00
2019-05-26T08:51:23.974Z,11.20
2019-05-26T08:53:52.400Z,9.50
2019-05-26T08:56:20.824Z,11.93
2019-05-26T08:58:49.235Z,9.88
2019-05-26T09:01:17.699Z,11.47
2019-05-26T09:03:46.132Z,10.20
2019-05-26T09:06:14.558Z,11.27
2019-05-26T09:08:43.002Z,10.70
2019-05-26T09:11:11.403Z,8.13
2019-05-26T09:13:39.786Z,8.57
2019-05-26T09:16:08.201Z,8.40
2019-05-26T09:18:36.601Z,9.53
2019-05-26T09:21:05.004Z,6.50
2019-05-26T09:23:33.433Z,6.97
2019-05-26T09:26:01.861Z,6.90
2019-05-26T09:28:30.283Z,11.67
2019-05-26T09:30:58.718Z,7.23
2019-05-26T09:33:27.123Z,6.70
2019-05-26T09:35:55.615Z,6.70
2019-05-26T09:38:23.968Z,4.50
2019-05-26T09:40:52.366Z,7.20
2019-05-26T09:43:20.781Z,5.30
2019-05-26T09:45:49.186Z,5.50
2019-05-26T09:48:17.598Z,4.47
2019-05-26T09:50:46.013Z,3.93
2019-05-26T09:53:14.467Z,5.93
2019-05-26T09:55:43.218Z,5.22
2019-05-26T09:58:11.616Z,3.93
2019-05-26T10:00:40.112Z,4.50
2019-05-26T10:03:08.530Z,6.70
2019-05-26T10:05:36.943Z,3.53
2019-05-26T10:08:05.364Z,3.27
2019-05-26T10:10:33.767Z,2.90
2019-05-26T10:13:02.173Z,4.40
2019-05-26T10:15:30.567Z,2.60
2019-05-26T10:17:58.975Z,3.00
2019-05-26T10:20:27.379Z,1.80
2019-05-26T10:22:55.771Z,2.27
2019-05-26T10:25:24.213Z,3.10
2019-05-26T10:27:52.641Z,3.07
2019-05-26T10:30:21.215Z,3.10
2019-05-26T10:32:49.642Z,2.43
2019-05-26T10:35:18.105Z,5.00
2019-05-26T10:37:46.536Z,2.20
2019-05-26T10:40:15.304Z,3.27
2019-05-26T10:42:43.743Z,5.50
2019-05-26T10:45:12.576Z,5.67
2019-05-26T10:47:40.998Z,4.80
2019-05-26T10:50:10.439Z,5.73
2019-05-26T10:52:38.905Z,4.20
2019-05-26T10:55:07.887Z,2.90
2019-05-26T10:57:36.331Z,2.33
2019-05-26T11:00:08.121Z,3.47
2019-05-26T11:02:36.521Z,2.20
2019-05-26T11:05:06.476Z,3.77
2019-05-26T11:07:34.880Z,1.93
2019-05-26T11:10:04.274Z,2.00
2019-05-26T11:12:32.672Z,9.63
2019-05-26T11:15:01.085Z,7.47
2019-05-26T11:17:29.492Z,2.80
2019-05-26T11:19:57.887Z,4.03
2019-05-26T11:22:26.295Z,3.43
2019-05-26T11:24:54.790Z,4.43
2019-05-26T11:27:23.210Z,2.07
2019-05-26T11:29:51.606Z,3.60
2019-05-26T11:32:20.051Z,1.92
2019-05-26T11:35:00.595Z,2.43
2019-05-26T11:37:18.601Z,2.40
2019-05-26T11:39:47.081Z,3.00
2019-05-26T11:42:15.628Z,4.50
2019-05-26T11:44:44.207Z,2.50
2019-05-26T11:47:12.640Z,2.27
2019-05-26T11:49:41.069Z,1.80
2019-05-26T11:52:09.482Z,3.67
2019-05-26T11:54:37.891Z,3.27
2019-05-26T11:57:06.449Z,2.27
2019-05-26T11:59:34.874Z,2.03
2019-05-26T12:02:03.360Z,4.70
2019-05-26T12:04:31.808Z,4.23
2019-05-26T12:07:00.214Z,2.40
2019-05-26T12:09:28.652Z,2.80
2019-05-26T12:11:57.086Z,2.95
2019-05-26T12:14:34.329Z,2.70
2019-05-26T12:16:55.667Z,4.87
2019-05-26T12:19:24.083Z,2.77
2019-05-26T12:21:52.513Z,5.00
2019-05-26T12:24:20.916Z,2.67
2019-05-26T12:26:49.335Z,6.07
2019-05-26T12:29:17.734Z,5.03
2019-05-26T12:31:46.258Z,3.50
2019-05-26T12:34:14.656Z,3.27
2019-05-26T12:36:43.100Z,2.30
2019-05-26T12:39:11.605Z,3.77
2019-05-26T12:41:40.091Z,3.30
2019-05-26T12:44:10.967Z,5.23
2019-05-26T12:46:38.674Z,2.50
2019-05-26T12:49:07.094Z,2.40
2019-05-26T12:51:35.550Z,3.90
2019-05-26T12:54:04.212Z,2.87
2019-05-26T12:56:32.626Z,2.07
2019-05-26T12:59:01.073Z,2.60
2019-05-26T13:01:29.554Z,4.40
2019-05-26T13:03:59.394Z,2.43
2019-05-26T13:06:27.851Z,3.40
2019-05-26T13:08:56.280Z,2.22
2019-05-26T13:11:24.693Z,4.00
2019-05-26T13:13:53.092Z,2.87
2019-05-26T13:16:21.611Z,2.40
2019-05-26T13:18:50.030Z,2.80
2019-05-26T13:21:18.439Z,2.40
2019-05-26T13:23:46.867Z,7.77
2019-05-26T13:26:15.270Z,4.13
2019-05-26T13:28:43.693Z,2.40
2019-05-26T13:31:12.134Z,5.50
2019-05-26T13:33:40.531Z,3.77
2019-05-26T13:36:08.966Z,1.97
2019-05-26T13:38:37.357Z,6.17
2019-05-26T13:41:05.788Z,3.87
2019-05-26T13:43:34.250Z,1.77
2019-05-26T13:46:02.662Z,3.43
2019-05-26T13:48:31.070Z,2.20
2019-05-26T13:50:59.501Z,7.07
2019-05-26T13:53:27.984Z,2.83
2019-05-26T13:55:56.389Z,3.58
2019-05-26T13:58:24.812Z,3.30
2019-05-26T14:00:53.302Z,5.87
2019-05-26T14:03:24.215Z,2.67
2019-05-26T14:05:51.898Z,8.20
2019-05-26T14:08:20.857Z,2.20
2019-05-26T14:10:49.620Z,3.73
2019-05-26T14:13:18.390Z,4.83
2019-05-26T14:15:48.721Z,5.23
2019-05-26T14:18:18.326Z,4.37
2019-05-26T14:20:47.259Z,3.30
2019-05-26T14:23:15.679Z,3.23
2019-05-26T14:25:44.124Z,8.67
2019-05-26T14:28:12.582Z,2.93
2019-05-26T14:30:40.980Z,7.93
2019-05-26T14:33:09.393Z,2.63
2019-05-26T14:35:37.910Z,4.20
2019-05-26T14:38:06.388Z,5.23
2019-05-26T14:40:34.821Z,3.10
2019-05-26T14:43:03.243Z,2.63
2019-05-26T14:45:31.660Z,4.22
2019-05-26T14:48:00.149Z,5.43
2019-05-26T14:50:28.580Z,2.57
2019-05-26T14:52:56.994Z,3.10
2019-05-26T14:55:25.421Z,2.50
2019-05-26T14:57:53.826Z,2.10
2019-05-26T15:00:24.315Z,2.17
2019-05-26T15:02:52.704Z,2.73
2019-05-26T15:05:21.734Z,2.33
2019-05-26T15:07:50.156Z,2.37
2019-05-26T15:10:18.656Z,5.70
2019-05-26T15:12:47.062Z,2.00
2019-05-26T15:15:16.600Z,2.10
2019-05-26T15:17:45.001Z,2.30
2019-05-26T15:20:14.940Z,2.77
2019-05-26T15:22:43.379Z,4.03
2019-05-26T15:25:12.072Z,3.90
2019-05-26T15:27:40.464Z,2.50
2019-05-26T15:30:11.323Z,5.10
2019-05-26T15:32:39.773Z,3.73
2019-05-26T15:35:08.994Z,3.33
2019-05-26T15:37:37.478Z,2.60
2019-05-26T15:40:07.702Z,2.63
2019-05-26T15:42:36.410Z,3.73
2019-05-26T15:45:06.550Z,8.50
2019-05-26T15:47:35.039Z,3.00
2019-05-26T15:50:05.110Z,4.73
2019-05-26T15:52:33.576Z,4.77
2019-05-26T15:55:02.001Z,3.50
2019-05-26T15:57:31.457Z,4.57
2019-05-26T16:00:00.017Z,2.60
2019-05-26T16:02:28.466Z,3.50
2019-05-26T16:04:58.914Z,7.07
2019-05-26T16:07:27.092Z,3.40
2019-05-26T16:09:56.529Z,2.93
2019-05-26T16:12:24.932Z,7.40
2019-05-26T16:14:53.422Z,10.80
2019-05-26T16:17:21.903Z,3.17
2019-05-26T16:19:50.313Z,2.90
2019-05-26T16:22:18.712Z,3.10
2019-05-26T16:24:47.172Z,5.77
2019-05-26T16:27:19.547Z,3.40
2019-05-26T16:29:46.700Z,6.03
2019-05-26T16:32:18.652Z,3.77
2019-05-26T16:34:45.415Z,3.53
2019-05-26T16:37:13.798Z,3.47
2019-05-26T16:39:42.342Z,3.87
2019-05-26T16:42:10.767Z,2.93
2019-05-26T16:44:39.225Z,6.57
2019-05-26T16:47:07.641Z,4.00
2019-05-26T16:49:36.156Z,4.10
2019-05-26T16:52:04.949Z,3.90
2019-05-26T16:54:33.446Z,4.35
2019-05-26T16:57:01.923Z,4.22
2019-05-26T16:59:30.354Z,4.67
2019-05-26T17:01:58.799Z,5.40
2019-05-26T17:04:27.235Z,7.33
2019-05-26T17:06:55.688Z,5.00
2019-05-26T17:09:24.119Z,4.35
2019-05-26T17:11:52.575Z,3.57
2019-05-26T17:14:21.068Z,3.87
2019-05-26T17:16:49.487Z,7.13
2019-05-26T17:19:17.903Z,3.67
2019-05-26T17:21:47.454Z,6.33
2019-05-26T17:24:15.920Z,4.00
2019-05-26T17:26:46.457Z,2.83
2019-05-26T17:29:14.859Z,5.23
2019-05-26T17:31:43.315Z,4.13
2019-05-26T17:34:11.914Z,4.27
2019-05-26T17:36:40.349Z,5.00
2019-05-26T17:39:09.482Z,3.80
2019-05-26T17:41:37.979Z,5.83
2019-05-26T17:44:06.640Z,3.70
2019-05-26T17:46:35.154Z,3.47
2019-05-26T17:49:03.566Z,3.13
2019-05-26T17:51:32.278Z,3.73
2019-05-26T17:54:00.771Z,5.00
2019-05-26T17:56:29.359Z,4.10
2019-05-26T17:58:57.764Z,3.10
2019-05-26T18:01:26.200Z,5.90
2019-05-26T18:03:54.650Z,3.63
2019-05-26T18:06:23.081Z,2.90
2019-05-26T18:08:51.523Z,5.87
2019-05-26T18:11:20.143Z,3.87
2019-05-26T18:13:48.619Z,5.03
2019-05-26T18:16:18.157Z,7.62
2019-05-26T18:18:46.712Z,7.43
2019-05-26T18:21:15.208Z,6.20
2019-05-26T18:23:43.683Z,4.30
2019-05-26T18:26:12.083Z,9.17
2019-05-26T18:28:40.482Z,7.60
2019-05-26T18:31:08.900Z,11.17
2019-05-26T18:33:37.332Z,21.47
2019-05-26T18:36:05.832Z,4.20
2019-05-26T18:38:34.254Z,6.03
2019-05-26T18:41:02.664Z,3.63
2019-05-26T18:43:31.068Z,3.50
2019-05-26T18:45:59.496Z,3.58
2019-05-26T18:48:27.903Z,3.77
2019-05-26T18:50:56.336Z,8.40
2019-05-26T18:53:24.812Z,5.70
2019-05-26T18:55:54.105Z,2.93
2019-05-26T18:58:22.669Z,7.10
2019-05-26T19:00:51.159Z,3.00
2019-05-26T19:03:19.690Z,4.63
2019-05-26T19:05:48.630Z,2.70
2019-05-26T19:08:17.323Z,2.50
2019-05-26T19:10:45.910Z,2.40
2019-05-26T19:13:14.419Z,2.57
2019-05-26T19:15:42.842Z,4.10
2019-05-26T19:18:20.016Z,3.83
2019-05-26T19:20:41.664Z,5.60
2019-05-26T19:23:10.201Z,3.27
2019-05-26T19:25:38.598Z,4.63
2019-05-26T19:28:08.212Z,2.90
2019-05-26T19:30:37.035Z,2.93
2019-05-26T19:33:06.113Z,4.90
2019-05-26T19:35:34.574Z,4.70
2019-05-26T19:38:03.077Z,4.70
2019-05-26T19:40:31.953Z,5.33
2019-05-26T19:43:00.952Z,4.13
2019-05-26T19:45:30.202Z,4.50
2019-05-26T19:47:58.691Z,4.83
2019-05-26T19:50:27.120Z,4.10
2019-05-26T19:52:55.641Z,3.73
2019-05-26T19:55:24.075Z,3.43
2019-05-26T19:57:52.581Z,3.00
2019-05-26T20:00:21.607Z,4.80
2019-05-26T20:02:50.007Z,3.57
2019-05-26T20:05:19.312Z,3.50
2019-05-26T20:07:47.827Z,2.27
2019-05-26T20:10:17.525Z,2.50
2019-05-26T20:12:46.324Z,2.60
2019-05-26T20:15:15.213Z,3.43
2019-05-26T20:17:44.153Z,2.70
2019-05-26T20:20:14.600Z,3.87
2019-05-26T20:22:43.058Z,3.03
2019-05-26T20:25:12.258Z,4.73
2019-05-26T20:27:40.674Z,3.53
2019-05-26T20:30:09.824Z,2.50
2019-05-26T20:32:38.246Z,2.43
2019-05-26T20:35:08.475Z,2.93
2019-05-26T20:37:37.029Z,2.60
2019-05-26T20:40:08.253Z,4.30
2019-05-26T20:42:36.682Z,3.23
2019-05-26T20:45:07.303Z,3.80
2019-05-26T20:47:36.054Z,3.10
2019-05-26T20:50:08.494Z,3.43
2019-05-26T20:52:36.917Z,5.27
2019-05-26T20:55:09.855Z,3.23
2019-05-26T20:57:38.449Z,5.57
2019-05-26T21:00:13.262Z,9.60
2019-05-26T21:02:42.392Z,7.60
2019-05-26T21:05:11.139Z,5.50
2019-05-26T21:07:39.662Z,5.17
2019-05-26T21:10:08.516Z,7.17
2019-05-26T21:12:36.917Z,5.58
2019-05-26T21:15:06.865Z,5.20
2019-05-26T21:17:35.270Z,6.93
2019-05-26T21:20:05.822Z,5.27
2019-05-26T21:22:34.302Z,10.30
2019-05-26T21:25:02.715Z,6.40
2019-05-26T21:27:31.102Z,7.63
2019-05-26T21:29:59.579Z,7.05
2019-05-26T21:32:31.289Z,6.00
2019-05-26T21:34:58.130Z,6.47
2019-05-26T21:37:26.564Z,8.55
2019-05-26T21:39:54.970Z,6.60
2019-05-26T21:42:23.431Z,7.83
2019-05-26T21:44:51.891Z,7.23
2019-05-26T21:47:20.316Z,7.40
2019-05-26T21:49:48.738Z,5.63
2019-05-26T21:52:17.153Z,8.27
2019-05-26T21:54:45.627Z,10.40
2019-05-26T21:57:14.100Z,5.77
2019-05-26T21:59:42.537Z,7.77
2019-05-26T22:02:11.880Z,6.67
2019-05-26T22:04:40.300Z,6.50
2019-05-26T22:07:08.718Z,11.87
2019-05-26T22:09:37.126Z,9.53
2019-05-26T22:12:05.684Z,10.03
2019-05-26T22:14:34.144Z,10.20
2019-05-26T22:17:02.588Z,8.60
2019-05-26T22:19:31.103Z,12.93
2019-05-26T22:22:00.477Z,11.57
2019-05-26T22:24:28.954Z,12.73
2019-05-26T22:26:57.358Z,14.90
2019-05-26T22:29:25.786Z,14.73
2019-05-26T22:31:54.211Z,12.67
2019-05-26T22:34:22.672Z,15.10
2019-05-26T22:36:51.163Z,11.83
2019-05-26T22:39:20.795Z,14.30
2019-05-26T22:41:49.211Z,12.90
2019-05-26T22:44:17.605Z,14.67
2019-05-26T22:46:46.040Z,14.30
2019-05-26T22:49:14.506Z,14.23
2019-05-26T22:51:42.901Z,12.00
2019-05-26T22:54:11.352Z,12.73
2019-05-26T22:56:39.864Z,12.53
2019-05-26T22:59:08.291Z,14.35
2019-05-26T23:01:36.698Z,9.90
2019-05-26T23:04:05.165Z,12.60
2019-05-26T23:06:33.596Z,14.80
2019-05-26T23:09:02.032Z,11.70
2019-05-26T23:11:30.542Z,11.23
2019-05-26T23:13:59.003Z,13.07
2019-05-26T23:16:27.494Z,11.20
2019-05-26T23:18:55.910Z,11.00
2019-05-26T23:21:24.322Z,12.80
2019-05-26T23:23:52.729Z,14.10
2019-05-26T23:26:21.140Z,13.97
2019-05-26T23:28:49.616Z,15.67
2019-05-26T23:31:18.067Z,13.37
2019-05-26T23:33:46.480Z,17.83
2019-05-26T23:36:14.889Z,14.03
2019-05-26T23:38:43.341Z,12.90
2019-05-26T23:41:11.832Z,12.10
2019-05-26T23:43:41.153Z,12.20
2019-05-26T23:46:09.586Z,13.33
2019-05-26T23:48:38.070Z,11.73
2019-05-26T23:51:06.557Z,13.13
2019-05-26T23:53:35.019Z,12.00
2019-05-26T23:56:03.446Z,13.70
2019-05-26T23:58:31.885Z,9.93
